Time;durP1;ratioP1;P1;durP2;ratioP2;P2;SDS_P1;SDS_P2;PMS_P1;PMS_P2;Temp;Humidity;BMP_temperature;BMP_pressure;BME280_temperature;BME280_humidity;BME280_pressure;Samples;Min_cycle;Max_cycle;Signal;HPM_P1;HPM_P2
2023/03/29 00:01:35;;;;;;;2.15;1.92;;;;;;;5.18;96.73;101604.69;5129883;27;20034;-69
2023/03/29 00:04:01;;;;;;;2.10;1.83;;;;;;;5.23;95.92;101602.28;5128771;27;20069;-69
2023/03/29 00:06:31;;;;;;;2.80;1.90;;;;;;;5.23;96.28;101601.44;5128825;27;20458;-65
2023/03/29 00:08:58;;;;;;;2.45;2.03;;;;;;;5.26;95.73;101603.78;5128202;27;20102;-66
2023/03/29 00:11:24;;;;;;;2.75;2.20;;;;;;;5.28;95.96;101599.03;5128287;27;20385;-67
2023/03/29 00:13:50;;;;;;;2.67;1.90;;;;;;;5.28;95.44;101590.84;5129013;27;20019;-63
2023/03/29 00:16:16;;;;;;;2.47;2.10;;;;;;;5.31;95.55;101587.75;5130726;27;20035;-68
2023/03/29 00:18:41;;;;;;;2.90;1.98;;;;;;;5.32;95.41;101589.44;5130187;27;20102;-69
2023/03/29 00:21:07;;;;;;;2.10;1.90;;;;;;;5.39;94.27;101588.56;5129933;27;20115;-68
2023/03/29 00:23:32;;;;;;;2.53;2.00;;;;;;;5.39;94.60;101579.56;5128553;27;20038;-69
2023/03/29 00:25:57;;;;;;;2.63;2.00;;;;;;;5.40;94.32;101584.81;5131089;27;20023;-69
2023/03/29 00:28:23;;;;;;;2.65;2.00;;;;;;;5.40;93.85;101568.47;5110528;27;20438;-65
2023/03/29 00:30:49;;;;;;;2.78;1.90;;;;;;;5.43;93.91;101578.19;5130274;27;20110;-69
2023/03/29 00:33:15;;;;;;;2.65;1.83;;;;;;;5.44;94.39;101568.97;5129821;27;20586;-63
2023/03/29 00:35:41;;;;;;;2.33;2.00;;;;;;;5.49;93.51;101572.00;5127910;27;20072;-69
2023/03/29 00:38:07;;;;;;;2.25;2.05;;;;;;;5.51;93.38;101569.94;5128674;27;20039;-68
2023/03/29 00:40:33;;;;;;;2.40;2.10;;;;;;;5.52;93.49;101570.78;5130257;27;20474;-67
2023/03/29 00:42:59;;;;;;;3.20;2.10;;;;;;;5.55;92.90;101582.19;5129230;27;20054;-68
2023/03/29 00:45:29;;;;;;;1.95;1.75;;;;;;;5.59;92.20;101561.72;5128660;27;20114;-67
2023/03/29 00:48:01;;;;;;;2.35;1.98;;;;;;;5.64;91.92;101567.47;5127599;27;20036;-68
2023/03/29 00:50:49;;;;;;;2.10;1.90;;;;;;;5.68;91.62;101557.91;5126256;27;20106;-69
2023/03/29 00:53:29;;;;;;;;;;;;;;;5.81;90.33;101554.56;5128399;27;20062;-67
2023/03/29 00:56:01;;;;;;;3.45;1.92;;;;;;;5.72;90.48;101556.50;5128492;27;19915;-69
2023/03/29 00:58:33;;;;;;;2.58;1.95;;;;;;;5.72;90.39;101550.22;5127775;27;20517;-70
2023/03/29 01:01:04;;;;;;;3.08;1.95;;;;;;;5.75;90.18;101549.00;5124503;27;20118;-68
2023/03/29 01:03:44;;;;;;;2.15;1.90;;;;;;;5.76;90.01;101540.66;5126105;27;20155;-68
2023/03/29 01:06:12;;;;;;;1.92;1.73;;;;;;;5.80;89.40;101538.41;5130130;27;20027;-69
2023/03/29 01:08:47;;;;;;;2.33;2.00;;;;;;;5.80;90.22;101541.13;5127316;27;20012;-70
2023/03/29 01:11:22;;;;;;;2.47;1.83;;;;;;;5.82;89.97;101548.09;5128171;27;20028;-67
2023/03/29 01:14:14;;;;;;;2.13;1.90;;;;;;;5.81;90.62;101548.28;5129028;27;20038;-70
2023/03/29 01:16:40;;;;;;;2.53;1.88;;;;;;;5.79;90.65;101537.56;5116497;27;20039;-70
2023/03/29 01:19:10;;;;;;;2.30;1.70;;;;;;;5.80;91.17;101536.53;5127768;27;20042;-67
2023/03/29 01:21:41;;;;;;;2.20;1.85;;;;;;;5.78;91.28;101543.19;5128184;27;20026;-68
2023/03/29 01:24:09;;;;;;;1.95;1.80;;;;;;;5.79;92.20;101528.53;5108928;27;20066;-69
2023/03/29 01:26:43;;;;;;;3.85;2.00;;;;;;;5.78;92.78;101524.09;5124899;27;20042;-69
2023/03/29 01:29:16;;;;;;;3.97;2.00;;;;;;;5.79;92.96;101531.28;5129034;27;20027;-70
2023/03/29 01:31:47;;;;;;;2.70;2.20;;;;;;;5.77;93.49;101539.59;5128245;27;20027;-69
2023/03/29 01:34:24;;;;;;;3.83;2.20;;;;;;;5.77;94.18;101520.53;5128043;27;20098;-69
2023/03/29 01:36:57;;;;;;;1.95;1.80;;;;;;;5.77;94.18;101512.34;5127382;27;20370;-67
2023/03/29 01:39:23;;;;;;;2.33;1.90;;;;;;;5.76;95.36;101515.28;5122455;27;20098;-69
2023/03/29 01:42:01;;;;;;;2.65;2.10;;;;;;;5.76;95.59;101513.38;5128183;27;20031;-70
2023/03/29 01:44:34;;;;;;;2.58;2.08;;;;;;;5.77;95.83;101503.31;5127036;27;20019;-66
2023/03/29 01:47:38;;;;;;;3.38;1.90;;;;;;;5.79;96.12;101506.75;5128623;27;20102;-66
2023/03/29 01:50:14;;;;;;;3.00;2.13;;;;;;;5.76;97.35;101507.09;5120525;27;20099;-69
2023/03/29 01:52:47;;;;;;;3.20;2.35;;;;;;;5.75;98.06;101502.69;5127959;27;20023;-70
2023/03/29 01:55:19;;;;;;;3.22;1.98;;;;;;;5.75;98.76;101494.50;5126819;27;20047;-69
2023/03/29 01:57:47;;;;;;;3.72;2.15;;;;;;;5.71;99.30;101497.56;5127836;27;20062;-70
2023/03/29 02:00:20;;;;;;;2.55;2.13;;;;;;;5.75;99.32;101494.50;5127926;27;20015;-70
2023/03/29 02:02:47;;;;;;;2.67;2.30;;;;;;;5.76;99.47;101497.03;5126376;27;20430;-67
2023/03/29 02:05:15;;;;;;;3.67;2.25;;;;;;;5.79;99.52;101490.38;5126577;27;20055;-67
2023/03/29 02:07:43;;;;;;;3.35;2.10;;;;;;;5.84;99.46;101493.41;5127178;27;20622;-68
2023/03/29 02:10:10;;;;;;;2.08;1.85;;;;;;;5.77;100.00;101482.38;5116567;27;20023;-69
2023/03/29 02:12:36;;;;;;;2.47;2.20;;;;;;;5.78;100.00;101486.81;5127783;27;20084;-69
2023/03/29 02:15:01;;;;;;;3.85;2.30;;;;;;;5.80;100.00;101481.16;5127376;27;20423;-64
2023/03/29 02:17:27;;;;;;;2.42;2.05;;;;;;;5.80;100.00;101475.72;5126946;27;20023;-63
2023/03/29 02:20:13;;;;;;;3.72;2.00;;;;;;;5.79;100.00;101471.31;5126408;27;20027;-67
2023/03/29 02:22:51;;;;;;;4.22;2.13;;;;;;;5.78;100.00;101465.00;5126375;27;20038;-71
2023/03/29 02:25:17;;;;;;;3.42;2.40;;;;;;;5.76;100.00;101458.03;5126996;27;20019;-66
2023/03/29 02:27:43;;;;;;;2.90;2.08;;;;;;;5.76;100.00;101458.88;5125961;27;20023;-69
2023/03/29 02:30:11;;;;;;;3.17;2.15;;;;;;;5.74;100.00;101460.94;5127362;27;20023;-69
2023/03/29 02:32:48;;;;;;;3.08;2.20;;;;;;;5.76;100.00;101452.59;5127352;27;20027;-70
2023/03/29 02:35:20;;;;;;;4.22;2.00;;;;;;;5.76;100.00;101445.25;5111421;27;20039;-67
2023/03/29 02:37:50;;;;;;;2.40;2.20;;;;;;;5.75;100.00;101443.56;5124453;27;20720;-70
2023/03/29 02:40:16;;;;;;;3.35;2.15;;;;;;;5.75;100.00;101442.72;5120788;27;20023;-69
2023/03/29 02:42:44;;;;;;;2.35;1.90;;;;;;;5.76;100.00;101437.06;5125286;27;20031;-67
2023/03/29 02:45:13;;;;;;;2.38;2.15;;;;;;;5.79;100.00;101438.59;5125678;27;20390;-69
2023/03/29 02:47:45;;;;;;;2.65;1.90;;;;;;;5.79;100.00;101433.16;5126977;27;20415;-68
2023/03/29 02:50:10;;;;;;;2.75;2.00;;;;;;;5.79;100.00;101427.69;5126199;27;20019;-70
2023/03/29 02:52:41;;;;;;;2.35;2.13;;;;;;;5.79;100.00;101424.97;5126597;27;20027;-70
2023/03/29 02:55:16;;;;;;;2.28;1.85;;;;;;;5.82;100.00;101419.13;5100792;27;20040;-69
2023/03/29 02:57:42;;;;;;;2.42;2.00;;;;;;;5.83;100.00;101420.81;5125200;28;20027;-68
2023/03/29 03:00:10;;;;;;;3.28;2.17;;;;;;;5.83;100.00;101423.53;5127141;28;20488;-68
2023/03/29 03:02:39;;;;;;;2.03;1.90;;;;;;;5.84;100.00;101414.34;5126543;28;20023;-67
2023/03/29 03:05:04;;;;;;;2.05;1.85;;;;;;;5.87;100.00;101417.53;5125820;28;20039;-69
2023/03/29 03:07:30;;;;;;;2.38;2.00;;;;;;;5.88;100.00;101413.81;5127065;27;20043;-68
2023/03/29 03:09:56;;;;;;;2.10;1.90;;;;;;;5.90;100.00;101413.59;5125278;27;20051;-69
2023/03/29 03:12:22;;;;;;;2.63;1.90;;;;;;;5.92;99.56;101414.28;5127395;28;20076;-64
2023/03/29 03:14:47;;;;;;;3.95;2.10;;;;;;;5.95;99.17;101411.19;5125821;28;20027;-68
2023/03/29 03:17:12;;;;;;;2.92;1.92;;;;;;;5.97;98.67;101409.13;5128717;27;20030;-68
2023/03/29 03:19:37;;;;;;;2.90;2.20;;;;;;;6.00;98.43;101407.91;5127555;27;20019;-69
2023/03/29 03:22:04;;;;;;;2.85;2.25;;;;;;;6.01;98.01;101402.25;5128434;27;20039;-66
2023/03/29 03:24:31;;;;;;;2.22;2.03;;;;;;;6.02;97.66;101397.66;5128259;27;20478;-69
2023/03/29 03:26:56;;;;;;;2.92;2.00;;;;;;;6.02;97.67;101398.50;5131156;27;20080;-69
2023/03/29 03:29:23;;;;;;;3.47;1.95;;;;;;;6.07;97.70;101406.13;5112710;27;20035;-69
2023/03/29 03:31:48;;;;;;;3.38;2.03;;;;;;;6.09;96.93;101395.88;5130275;27;20027;-69
2023/03/29 03:34:14;;;;;;;2.30;1.83;;;;;;;6.10;97.04;101394.84;5128706;27;20064;-69
2023/03/29 03:36:39;;;;;;;2.92;2.13;;;;;;;6.14;96.32;101393.44;5130197;27;20521;-65
2023/03/29 03:39:06;;;;;;;2.63;1.80;;;;;;;6.15;95.80;101392.41;5129136;27;20031;-69
2023/03/29 03:41:32;;;;;;;2.13;1.92;;;;;;;6.17;95.99;101388.44;5130582;27;20552;-65
2023/03/29 03:43:58;;;;;;;2.47;2.00;;;;;;;6.19;95.55;101400.03;5129198;27;20023;-66
2023/03/29 03:46:23;;;;;;;4.30;2.20;;;;;;;6.22;94.97;101396.91;5130496;27;20057;-68
2023/03/29 03:48:48;;;;;;;3.22;2.25;;;;;;;6.24;93.43;101396.72;5127998;27;20372;-66
2023/03/29 03:51:14;;;;;;;2.83;1.80;;;;;;;6.27;92.66;101390.03;5130369;27;20457;-68
2023/03/29 03:53:39;;;;;;;3.83;2.10;;;;;;;6.26;93.30;101394.66;5129377;27;20090;-70
2023/03/29 03:56:07;;;;;;;4.07;2.15;;;;;;;6.30;92.43;101389.66;5129874;27;20374;-69
2023/03/29 03:58:36;;;;;;;2.28;1.98;;;;;;;6.31;92.00;101392.19;5124201;27;20031;-69
2023/03/29 04:01:03;;;;;;;2.25;1.90;;;;;;;6.36;91.56;101394.38;5130550;27;20083;-65
2023/03/29 04:03:29;;;;;;;2.47;2.00;;;;;;;6.38;91.70;101395.00;5128860;27;20426;-68
2023/03/29 04:05:54;;;;;;;2.28;1.70;;;;;;;6.38;90.74;101387.66;5129922;27;20035;-68
2023/03/29 04:08:21;;;;;;;2.13;1.85;;;;;;;6.38;90.49;101387.66;5129804;27;20098;-69
2023/03/29 04:10:54;;;;;;;2.40;1.80;;;;;;;6.37;90.94;101382.41;5129895;27;20027;-69
2023/03/29 04:13:20;;;;;;;3.20;2.00;;;;;;;6.37;90.68;101379.69;5130899;27;20031;-68
2023/03/29 04:15:48;;;;;;;2.78;2.00;;;;;;;6.36;90.65;101372.53;5129751;27;20151;-68
2023/03/29 04:18:14;;;;;;;3.15;2.13;;;;;;;6.36;91.19;101380.72;5127850;27;20108;-69
2023/03/29 04:20:40;;;;;;;2.22;1.80;;;;;;;6.35;90.66;101377.16;5128920;27;20500;-68
2023/03/29 04:23:05;;;;;;;2.85;2.10;;;;;;;6.37;90.40;101374.22;5129352;27;20027;-67
2023/03/29 04:25:31;;;;;;;3.38;2.00;;;;;;;6.36;90.12;101372.53;5130250;27;20511;-65
2023/03/29 04:27:56;;;;;;;3.85;2.00;;;;;;;6.37;91.23;101368.78;5128437;27;20029;-70
2023/03/29 04:30:22;;;;;;;3.60;1.90;;;;;;;6.38;90.44;101365.00;5129631;27;20031;-65
2023/03/29 04:32:47;;;;;;;2.60;2.00;;;;;;;6.38;90.04;101365.00;5126543;27;20633;-69
2023/03/29 04:35:12;;;;;;;1.95;1.70;;;;;;;6.41;90.05;101368.19;5129253;27;20126;-70
2023/03/29 04:37:39;;;;;;;3.42;2.00;;;;;;;6.42;90.14;101364.44;5127963;27;20027;-70
2023/03/29 04:40:08;;;;;;;2.67;2.00;;;;;;;6.42;90.99;101360.84;5129029;27;20125;-70
2023/03/29 04:42:34;;;;;;;2.42;2.10;;;;;;;6.45;90.79;101365.94;5129366;27;20072;-69
2023/03/29 04:44:59;;;;;;;3.42;2.00;;;;;;;6.45;89.84;101365.94;5128098;27;20035;-69
2023/03/29 04:47:28;;;;;;;3.53;2.20;;;;;;;6.47;89.84;101363.84;5127404;27;20030;-68
2023/03/29 04:49:53;;;;;;;2.33;1.92;;;;;;;6.49;89.54;101359.06;5128172;27;20504;-69
2023/03/29 04:52:19;;;;;;;3.25;2.20;;;;;;;6.48;90.52;101355.47;5128702;27;20023;-69
2023/03/29 04:54:44;;;;;;;3.42;2.20;;;;;;;6.52;90.31;101364.13;5127279;27;20055;-69
2023/03/29 04:57:09;;;;;;;3.55;2.20;;;;;;;6.54;89.74;101353.88;5126901;27;20076;-69
2023/03/29 04:59:35;;;;;;;3.80;2.20;;;;;;;6.56;89.14;101354.53;5126987;27;20062;-70
2023/03/29 05:02:01;;;;;;;3.35;2.15;;;;;;;6.57;89.17;101353.47;5108643;27;20034;-69
2023/03/29 05:04:27;;;;;;;3.65;1.90;;;;;;;6.59;89.33;101348.69;5125681;27;20175;-68
2023/03/29 05:06:54;;;;;;;2.60;2.03;;;;;;;6.59;89.52;101347.81;5123698;27;20064;-63
2023/03/29 05:09:20;;;;;;;2.92;2.13;;;;;;;6.59;89.68;101343.25;5127325;27;20011;-69
2023/03/29 05:11:46;;;;;;;3.03;2.20;;;;;;;6.61;89.57;101341.16;5126596;27;20059;-68
2023/03/29 05:14:11;;;;;;;3.67;2.35;;;;;;;6.65;89.88;101349.81;5126371;27;20445;-67
2023/03/29 05:16:37;;;;;;;3.08;1.95;;;;;;;6.67;89.43;101354.03;5126753;27;20373;-68
2023/03/29 05:19:02;;;;;;;2.45;2.15;;;;;;;6.70;89.57;101350.91;5104089;27;20362;-69
2023/03/29 05:21:28;;;;;;;2.22;2.03;;;;;;;6.68;90.00;101344.78;5110987;27;20366;-70
2023/03/29 05:23:53;;;;;;;2.60;1.80;;;;;;;6.70;89.87;101339.16;5125606;27;20055;-69
2023/03/29 05:26:20;;;;;;;3.70;2.22;;;;;;;6.72;89.79;101345.25;5126551;27;20477;-70
2023/03/29 05:28:46;;;;;;;2.97;2.03;;;;;;;6.73;89.97;101344.22;5126125;27;20076;-70
2023/03/29 05:31:11;;;;;;;3.78;2.28;;;;;;;6.76;89.43;101352.88;5124267;27;20027;-70
2023/03/29 05:33:36;;;;;;;3.63;2.40;;;;;;;6.81;89.31;101356.91;5126553;27;20031;-65
2023/03/29 05:36:12;;;;;;;2.83;2.10;;;;;;;6.82;89.90;101366.78;5126102;27;20450;-69
2023/03/29 05:38:37;;;;;;;3.00;2.20;;;;;;;6.84;89.59;101353.78;5125363;27;20516;-67
2023/03/29 05:41:03;;;;;;;2.88;1.88;;;;;;;6.88;89.44;101350.47;5125227;27;20046;-65
2023/03/29 05:43:28;;;;;;;2.85;2.17;;;;;;;6.93;89.11;101350.72;5124890;27;20374;-68
2023/03/29 05:45:55;;;;;;;3.40;2.22;;;;;;;6.94;88.96;101351.56;5124280;27;20474;-70
2023/03/29 05:48:22;;;;;;;2.45;2.25;;;;;;;6.95;89.79;101354.13;5126150;27;20086;-69
2023/03/29 05:50:49;;;;;;;3.80;2.30;;;;;;;6.97;89.67;101359.38;5127163;27;20051;-70
2023/03/29 05:53:15;;;;;;;4.53;2.33;;;;;;;7.00;89.97;101354.38;5125617;27;20023;-70
2023/03/29 05:55:41;;;;;;;3.15;2.40;;;;;;;7.03;89.64;101364.06;5124399;27;20043;-70
2023/03/29 05:58:06;;;;;;;3.05;2.03;;;;;;;7.07;89.44;101368.09;5123633;27;20381;-70
2023/03/29 06:00:35;;;;;;;4.05;2.20;;;;;;;7.11;89.12;101368.56;5125636;27;20509;-70
2023/03/29 06:03:01;;;;;;;3.33;2.25;;;;;;;7.16;89.40;101371.56;5122567;27;20441;-70
2023/03/29 06:05:26;;;;;;;3.55;2.30;;;;;;;7.19;89.25;101374.72;5124496;27;20027;-70
2023/03/29 06:07:51;;;;;;;5.00;2.53;;;;;;;7.22;89.56;101376.22;5123704;27;20054;-68
2023/03/29 06:10:17;;;;;;;3.60;2.00;;;;;;;7.27;89.08;101369.13;5126967;27;20027;-70
2023/03/29 06:12:42;;;;;;;3.95;2.20;;;;;;;7.30;88.50;101365.19;5106265;27;20015;-69
2023/03/29 06:15:09;;;;;;;3.50;2.10;;;;;;;7.36;88.25;101361.66;5123407;27;20169;-67
2023/03/29 06:17:34;;;;;;;4.38;2.10;;;;;;;7.38;88.17;101364.19;5122407;27;20374;-69
2023/03/29 06:20:00;;;;;;;3.72;2.08;;;;;;;7.39;88.73;101357.66;5127116;27;20102;-65
2023/03/29 06:22:26;;;;;;;3.20;2.20;;;;;;;7.40;88.55;101364.81;5126193;27;20533;-68
2023/03/29 06:24:52;;;;;;;4.28;2.40;;;;;;;7.43;89.09;101367.16;5124332;27;20046;-68
2023/03/29 06:27:18;;;;;;;3.80;2.22;;;;;;;7.45;89.39;101362.34;5125310;27;20469;-68
2023/03/29 06:29:44;;;;;;;3.78;2.20;;;;;;;7.49;89.47;101369.94;5123133;27;20042;-68
2023/03/29 06:32:09;;;;;;;4.50;2.33;;;;;;;7.53;89.49;101375.88;5126307;27;20008;-67
2023/03/29 06:34:35;;;;;;;3.85;2.47;;;;;;;7.54;89.70;101364.72;5125738;27;20134;-70
2023/03/29 06:37:00;;;;;;;3.20;2.40;;;;;;;7.61;89.20;101364.81;5108079;27;20031;-69
2023/03/29 06:39:25;;;;;;;4.75;2.38;;;;;;;7.67;88.47;101365.91;5124336;27;20053;-70
2023/03/29 06:41:51;;;;;;;4.28;2.35;;;;;;;7.66;89.48;101364.22;5125967;27;20317;-69
2023/03/29 06:44:17;;;;;;;3.65;2.20;;;;;;;7.68;89.48;101359.38;5124851;27;20468;-70
2023/03/29 06:46:43;;;;;;;3.25;2.30;;;;;;;7.70;88.99;101363.59;5126109;27;20098;-66
2023/03/29 06:49:08;;;;;;;4.68;2.33;;;;;;;7.75;89.88;101368.47;5124906;27;20023;-69
2023/03/29 06:51:33;;;;;;;3.55;2.30;;;;;;;7.79;90.10;101359.66;5124124;27;20031;-67
2023/03/29 06:53:59;;;;;;;4.65;2.38;;;;;;;7.88;89.52;101359.50;5125562;27;20027;-68
2023/03/29 06:56:24;;;;;;;3.38;2.45;;;;;;;7.94;89.74;101367.75;5125858;27;20047;-65
2023/03/29 06:58:50;;;;;;;3.40;2.50;;;;;;;8.00;89.11;101371.56;5107204;28;20528;-69
2023/03/29 07:01:15;;;;;;;4.30;2.38;;;;;;;8.05;89.01;101366.34;5126127;28;20271;-70
2023/03/29 07:03:42;;;;;;;3.90;2.38;;;;;;;8.09;88.72;101369.53;5121879;27;20095;-67
2023/03/29 07:06:11;;;;;;;4.45;2.50;;;;;;;8.12;89.05;101367.25;5119541;27;21829;-67
2023/03/29 07:08:42;;;;;;;4.88;2.40;;;;;;;8.19;88.69;101370.00;5115464;28;20043;-65
2023/03/29 07:11:11;;;;;;;3.63;2.10;;;;;;;8.23;88.45;101365.81;5123427;27;20024;-69
2023/03/29 07:13:36;;;;;;;4.75;2.30;;;;;;;8.26;88.66;101365.41;5123369;28;20089;-69
2023/03/29 07:16:02;;;;;;;3.40;2.17;;;;;;;8.31;88.86;101379.31;5122649;27;20206;-67
2023/03/29 07:18:27;;;;;;;3.60;2.30;;;;;;;8.33;88.40;101375.34;5123671;28;20028;-69
2023/03/29 07:20:53;;;;;;;3.83;2.47;;;;;;;8.36;88.49;101373.25;5126123;27;20023;-69
2023/03/29 07:23:18;;;;;;;3.55;2.30;;;;;;;8.37;89.29;101378.56;5125695;27;20035;-70
2023/03/29 07:25:44;;;;;;;2.72;2.05;;;;;;;8.39;89.88;101375.63;5112141;28;20019;-70
2023/03/29 07:28:10;;;;;;;4.63;2.42;;;;;;;8.47;89.30;101384.50;5116781;27;20450;-69
2023/03/29 07:30:35;;;;;;;3.65;2.50;;;;;;;8.49;89.32;101387.88;5127824;28;20026;-70
2023/03/29 07:33:01;;;;;;;3.63;2.50;;;;;;;8.58;89.85;101392.13;5119054;27;20039;-69
2023/03/29 07:35:27;;;;;;;3.33;2.60;;;;;;;8.58;89.30;101392.13;5106204;28;20110;-69
2023/03/29 07:37:54;;;;;;;4.72;3.10;;;;;;;8.60;89.58;101388.34;5104632;28;20108;-70
2023/03/29 07:40:22;;;;;;;3.05;2.55;;;;;;;8.64;89.36;101406.91;5105196;28;20041;-64
2023/03/29 07:42:51;;;;;;;3.42;2.47;;;;;;;8.66;89.55;101399.31;5108442;27;20412;-67
2023/03/29 07:45:19;;;;;;;4.68;2.40;;;;;;;8.69;89.55;101409.88;5125868;28;20290;-69
2023/03/29 07:47:46;;;;;;;2.67;2.20;;;;;;;8.72;90.75;101412.19;5124555;28;20069;-69
2023/03/29 07:50:12;;;;;;;3.38;2.33;;;;;;;8.73;89.44;101413.03;5105533;27;20044;-69
2023/03/29 07:52:38;;;;;;;4.43;2.60;;;;;;;8.73;89.49;101407.56;5110305;27;20015;-69
2023/03/29 07:55:05;;;;;;;4.80;2.90;;;;;;;8.77;90.21;101406.97;5124386;27;20147;-69
2023/03/29 07:57:31;;;;;;;4.32;2.47;;;;;;;8.79;90.12;101409.47;5123527;28;20307;-66
2023/03/29 07:59:56;;;;;;;3.20;2.40;;;;;;;8.81;90.81;101413.69;5125727;28;20467;-69
2023/03/29 08:02:22;;;;;;;4.50;2.60;;;;;;;8.87;91.47;101413.91;5123579;27;20041;-65
2023/03/29 08:04:48;;;;;;;3.08;2.50;;;;;;;8.88;90.95;101411.00;5128552;27;20051;-69
2023/03/29 08:07:14;;;;;;;4.03;2.60;;;;;;;8.91;91.35;101401.50;5128616;27;20035;-68
2023/03/29 08:09:42;;;;;;;3.33;2.45;;;;;;;9.02;90.96;101399.03;5127318;27;20019;-68
2023/03/29 08:12:07;;;;;;;4.15;2.75;;;;;;;9.04;90.98;101393.34;5129116;27;20374;-69
2023/03/29 08:14:32;;;;;;;5.80;2.40;;;;;;;9.07;91.25;101399.25;5128145;27;20031;-67
2023/03/29 08:16:58;;;;;;;3.95;2.47;;;;;;;9.11;91.89;101405.13;5128877;27;20027;-65
2023/03/29 08:19:24;;;;;;;3.55;2.50;;;;;;;9.10;91.74;101400.72;5126639;27;20023;-68
2023/03/29 08:21:49;;;;;;;3.40;2.50;;;;;;;9.11;92.62;101405.13;5128460;27;20023;-68
2023/03/29 08:24:14;;;;;;;4.38;2.70;;;;;;;9.06;93.63;101405.75;5128351;27;20019;-70
2023/03/29 08:26:40;;;;;;;3.65;2.55;;;;;;;9.07;94.38;101403.84;5128486;27;20450;-69
2023/03/29 08:29:07;;;;;;;4.05;2.50;;;;;;;8.97;95.16;101414.38;5127794;27;20019;-68
2023/03/29 08:31:32;;;;;;;3.38;2.40;;;;;;;8.93;96.61;101394.78;5128216;27;20531;-70
2023/03/29 08:33:57;;;;;;;4.10;2.85;;;;;;;9.02;96.63;101396.28;5126035;27;20027;-69
2023/03/29 08:36:23;;;;;;;3.00;2.63;;;;;;;9.16;97.21;101388.06;5127541;27;20046;-70
2023/03/29 08:38:49;;;;;;;4.38;3.05;;;;;;;9.23;97.02;101388.94;5125331;27;20418;-64
2023/03/29 08:41:45;;;;;;;4.35;2.63;;;;;;;9.39;95.60;101383.06;5121426;27;20496;-67
2023/03/29 08:44:27;;;;;;;3.17;2.70;;;;;;;9.61;94.48;101389.16;5124453;27;20023;-69
2023/03/29 08:47:30;;;;;;;3.90;3.08;;;;;;;9.80;93.14;101384.75;5119015;27;20027;-69
2023/03/29 08:49:56;;;;;;;4.32;2.80;;;;;;;9.74;94.64;101377.38;5124413;27;20385;-68
2023/03/29 08:52:45;;;;;;;5.38;2.80;;;;;;;9.80;93.50;101385.59;5120405;27;20034;-68
2023/03/29 08:55:21;;;;;;;3.97;2.70;;;;;;;9.80;94.53;101385.59;5118750;27;20058;-69
2023/03/29 08:57:49;;;;;;;4.20;2.72;;;;;;;9.90;95.36;101378.81;5125092;27;20043;-70
2023/03/29 09:00:31;;;;;;;4.13;2.83;;;;;;;10.04;93.79;101381.34;5126826;27;20038;-69
2023/03/29 09:02:58;;;;;;;5.65;3.00;;;;;;;10.18;93.89;101381.28;5123726;27;20110;-65
2023/03/29 09:05:33;;;;;;;3.60;2.80;;;;;;;10.34;93.41;101373.47;5127809;27;20373;-64
2023/03/29 09:08:00;;;;;;;4.80;3.00;;;;;;;10.45;92.86;101373.84;5129665;27;20032;-69
2023/03/29 09:10:56;;;;;;;4.60;3.15;;;;;;;10.63;92.50;101365.72;5125535;27;20027;-64
2023/03/29 09:13:33;;;;;;;4.65;3.00;;;;;;;10.86;91.37;101378.94;5118479;27;20065;-68
2023/03/29 09:16:16;;;;;;;4.38;2.83;;;;;;;11.00;90.69;101365.94;5121345;27;20019;-69
2023/03/29 09:19:15;;;;;;;4.63;2.90;;;;;;;11.38;90.09;101376.91;5120668;27;20046;-68
2023/03/29 09:21:49;;;;;;;3.97;2.88;;;;;;;11.60;87.11;101385.63;5124911;27;20433;-69
2023/03/29 09:24:32;;;;;;;4.07;2.90;;;;;;;11.55;87.61;101382.69;5125096;27;20022;-67
2023/03/29 09:27:12;;;;;;;5.30;3.10;;;;;;;11.36;88.76;101382.66;5129660;27;20138;-68
2023/03/29 09:29:43;;;;;;;5.10;2.78;;;;;;;11.30;89.15;101377.19;5127565;27;20377;-68
2023/03/29 09:32:20;;;;;;;3.80;2.70;;;;;;;11.29;89.30;101373.59;5124349;27;20039;-68
2023/03/29 09:34:59;;;;;;;5.18;3.15;;;;;;;11.25;89.50;101374.25;5128346;27;20030;-68
2023/03/29 09:37:35;;;;;;;4.90;2.83;;;;;;;11.41;89.78;101374.56;5101387;27;20561;-69
2023/03/29 09:40:09;;;;;;;4.95;2.90;;;;;;;11.64;89.77;101367.59;5122996;27;20035;-69
2023/03/29 09:42:35;;;;;;;4.20;2.72;;;;;;;11.57;88.23;101373.16;5119834;27;20430;-68
2023/03/29 09:45:07;;;;;;;4.32;3.20;;;;;;;11.41;88.71;101381.97;5116287;27;20023;-68
2023/03/29 09:47:56;;;;;;;5.68;3.47;;;;;;;11.34;89.94;101379.25;5112153;27;20246;-69
2023/03/29 09:50:47;;;;;;;4.13;3.00;;;;;;;11.34;90.26;101379.25;5118128;27;20027;-68
2023/03/29 09:53:14;;;;;;;5.55;3.10;;;;;;;11.25;90.46;101388.00;5119588;27;20023;-68
2023/03/29 09:55:42;;;;;;;4.95;3.60;;;;;;;11.12;92.29;101384.28;5124738;27;20043;-66
2023/03/29 09:58:13;;;;;;;;;;;;;;;11.17;91.25;101386.38;5118166;27;20111;-69
2023/03/29 10:00:39;;;;;;;4.60;3.38;;;;;;;10.75;95.60;101387.88;5126385;27;19907;-69
2023/03/29 10:03:04;;;;;;;5.10;3.10;;;;;;;10.52;98.50;101399.38;5126642;27;20035;-68
2023/03/29 10:05:35;;;;;;;4.50;3.15;;;;;;;10.55;99.37;101388.81;5129725;27;20027;-67
2023/03/29 10:08:00;;;;;;;4.38;3.20;;;;;;;10.57;100.00;101385.84;5128006;27;20050;-68
2023/03/29 10:10:30;;;;;;;5.28;3.00;;;;;;;10.55;100.00;101391.56;5127972;27;20362;-68
2023/03/29 10:12:59;;;;;;;6.80;3.40;;;;;;;10.52;100.00;101393.88;5128797;27;20076;-65
2023/03/29 10:15:28;;;;;;;5.57;3.45;;;;;;;10.61;100.00;101378.84;5129049;27;20095;-66
2023/03/29 10:18:01;;;;;;;;;;;;;;;10.83;98.31;101384.88;5114795;27;20518;-69
2023/03/29 10:20:27;;;;;;;4.43;3.40;;;;;;;10.81;99.96;101371.34;5126738;27;19923;-69
2023/03/29 10:22:57;;;;;;;4.65;3.30;;;;;;;10.95;99.74;101368.53;5127851;27;20023;-66
2023/03/29 10:25:30;;;;;;;4.32;3.25;;;;;;;10.98;98.56;101363.44;5127909;27;20023;-66
2023/03/29 10:28:17;;;;;;;4.35;3.00;;;;;;;11.05;98.44;101372.50;5126324;27;20023;-68
2023/03/29 10:30:46;;;;;;;4.32;3.47;;;;;;;11.00;98.50;101374.19;5123185;27;20023;-68
2023/03/29 10:33:18;;;;;;;4.68;3.10;;;;;;;11.02;99.19;101363.84;5127733;27;20469;-67
2023/03/29 10:35:45;;;;;;;5.97;3.35;;;;;;;11.12;98.61;101364.19;5128528;27;20039;-68
2023/03/29 10:38:17;;;;;;;4.50;2.92;;;;;;;11.18;98.56;101366.06;5127383;27;20024;-68
2023/03/29 10:40:48;;;;;;;5.07;3.15;;;;;;;11.11;98.71;101360.63;5116665;27;20028;-68
2023/03/29 10:43:28;;;;;;;5.22;3.38;;;;;;;11.00;99.83;101368.69;5105531;28;20043;-69
2023/03/29 10:46:03;;;;;;;4.43;3.10;;;;;;;10.93;100.00;101365.16;5105863;28;20039;-69
2023/03/29 10:48:30;;;;;;;4.05;3.15;;;;;;;11.03;100.00;101363.63;5108470;27;20030;-68
2023/03/29 10:51:04;;;;;;;3.50;3.20;;;;;;;11.47;100.00;101352.72;5124252;27;20023;-69
2023/03/29 10:53:39;;;;;;;3.65;3.00;;;;;;;11.79;99.87;101348.00;5124650;27;20020;-65
2023/03/29 10:56:17;;;;;;;4.55;3.30;;;;;;;11.78;97.66;101338.91;5123190;27;20174;-69
2023/03/29 10:59:18;;;;;;;4.40;3.20;;;;;;;11.80;98.55;101339.50;5124367;28;20111;-69
2023/03/29 11:02:01;;;;;;;3.75;3.30;;;;;;;12.31;98.62;101327.31;5114998;28;20320;-69
2023/03/29 11:04:44;;;;;;;4.57;3.05;;;;;;;13.21;92.38;101316.34;5124480;27;20023;-68
2023/03/29 11:07:42;;;;;;;3.75;2.60;;;;;;;14.98;83.32;101309.47;5117780;28;20019;-66
2023/03/29 11:10:25;;;;;;;4.07;2.75;;;;;;;14.36;81.85;101312.09;5125324;28;20365;-66
2023/03/29 11:13:03;;;;;;;3.78;2.72;;;;;;;13.69;85.05;101309.78;5124909;27;20644;-68
2023/03/29 11:15:55;;;;;;;3.42;2.80;;;;;;;13.35;87.68;101303.16;5126089;28;20121;-63
2023/03/29 11:18:59;;;;;;;4.00;2.67;;;;;;;13.30;87.81;101314.06;5108223;28;20054;-70
2023/03/29 11:21:45;;;;;;;3.08;2.53;;;;;;;13.12;88.66;101305.84;5002594;28;20033;-70
2023/03/29 11:24:25;;;;;;;3.88;2.55;;;;;;;13.21;90.26;101304.44;5009005;28;20025;-69
2023/03/29 11:27:06;;;;;;;4.18;2.60;;;;;;;13.35;87.95;101294.06;5093613;28;20050;-64
2023/03/29 11:29:55;;;;;;;3.92;2.80;;;;;;;13.37;87.97;101297.41;5125176;28;20501;-66
2023/03/29 11:32:37;;;;;;;3.70;2.40;;;;;;;13.42;88.32;101292.84;5106484;28;20165;-70
2023/03/29 11:35:36;;;;;;;3.35;2.30;;;;;;;13.27;87.70;101313.69;5124807;27;20062;-69
2023/03/29 11:38:20;;;;;;;3.45;2.42;;;;;;;13.38;86.80;101316.50;5108796;27;20043;-67
2023/03/29 11:40:55;;;;;;;3.22;2.53;;;;;;;13.25;87.49;101319.47;5127236;27;20413;-69
2023/03/29 11:43:24;;;;;;;3.25;2.75;;;;;;;13.18;87.90;101322.31;5112412;27;20035;-69
2023/03/29 11:45:54;;;;;;;3.95;2.58;;;;;;;13.17;88.64;101315.09;5128467;27;20498;-68